This is the latest recevied weather packets stored in our database for station/object N0YWB. If no packets are shown the sender has not sent any weather packets the latest 10 day(s).
| Time | Temp. | Humidity | Pressure | Rain* | Wind** | Luminosity | Snow |
|---|---|---|---|---|---|---|---|
| 1777518924 | 5.56° C | 81% | 1020.6 hPa | 0 mm | - | - | - |
| 1777513529 | 8.89° C | 58% | 1020 hPa | 0 mm | - | - | - |
| 1777509330 | 12.78° C | 47% | 1019.6 hPa | 0 mm | - | - | - |
| 1777505728 | 13.89° C | 43% | 1019.5 hPa | 0 mm | - | - | - |
| 1777501523 | 15.56° C | 40% | 1019.2 hPa | 0 mm | - | - | - |
| 1777500328 | 16.11° C | 41% | 1019.2 hPa | 0 mm | - | - | - |
| 1777497920 | 15.56° C | 39% | 1019.1 hPa | 0 mm | - | - | - |
| 1777497323 | 16.11° C | 40% | 1019.3 hPa | 0 mm | - | - | - |
| 1777493741 | 15.56° C | 41% | 1019.9 hPa | 0 mm | - | - | - |
| 1777490716 | 15.56° C | 44% | 1020.2 hPa | 0 mm | - | - | - |
| 1777487132 | 15° C | 48% | 1020.4 hPa | 0 mm | - | - | - |
| 1777484724 | 13.89° C | 52% | 1020.6 hPa | 0 mm | - | - | - |
| 1777483523 | 13.89° C | 53% | 1020.7 hPa | 0 mm | - | - | - |
| 1777482316 | 13.89° C | 53% | 1020.9 hPa | 0 mm | - | - | - |
| 1777481121 | 13.33° C | 56% | 1021.1 hPa | 0 mm | - | - | - |
| 1777480524 | 13.33° C | 54% | 1021.1 hPa | 0 mm | - | - | - |
| 1777472118 | 10.56° C | 71% | 1020.9 hPa | 0 mm | - | - | - |
| 1777471527 | 10° C | 73% | 1020.9 hPa | 0 mm | - | - | - |
| 1777467945 | 8.33° C | 77% | 1020.5 hPa | 0 mm | - | - | - |
| 1777464915 | 7.78° C | 81% | 1020.2 hPa | 0 mm | - | - | - |
| 1777464338 | 7.22° C | 82% | 1020.2 hPa | 0 mm | - | - | - |
| 1777452316 | 8.89° C | 83% | 1019.3 hPa | 0 mm | - | - | - |
| 1777451721 | 8.89° C | 83% | 1019.2 hPa | 0 mm | - | - | - |
| 1777449934 | 8.89° C | 81% | 1019.3 hPa | 0 mm | - | - | - |
| 1777447540 | 8.89° C | 80% | 1019.3 hPa | 0 mm | - | - | - |
* Rain latest hour (hover to see other rain measurements)
** Current wind speed in m/s (hover to see current wind gust speed)